sensor_id;sensor_type;location;lat;lon;timestamp;pressure;altitude;pressure_sealevel;temperature;humidity
11124;BME280;5616;42.692;23.312;2023-06-26T00:00:02;94930.53;;;21.60;90.60
11124;BME280;5616;42.692;23.312;2023-06-26T00:02:31;94927.84;;;21.55;90.66
11124;BME280;5616;42.692;23.312;2023-06-26T00:04:58;94932.63;;;21.58;90.68
11124;BME280;5616;42.692;23.312;2023-06-26T00:07:28;94928.41;;;21.57;90.55
11124;BME280;5616;42.692;23.312;2023-06-26T00:09:55;94922.06;;;21.53;91.44
11124;BME280;5616;42.692;23.312;2023-06-26T00:12:23;94929.69;;;21.55;91.23
11124;BME280;5616;42.692;23.312;2023-06-26T00:14:50;94932.63;;;21.58;91.11
11124;BME280;5616;42.692;23.312;2023-06-26T00:17:17;94934.19;;;21.54;91.33
11124;BME280;5616;42.692;23.312;2023-06-26T00:19:44;94923.09;;;21.52;91.49
11124;BME280;5616;42.692;23.312;2023-06-26T00:22:11;94932.31;;;21.55;91.26
11124;BME280;5616;42.692;23.312;2023-06-26T00:24:38;94930.00;;;21.58;91.52
11124;BME280;5616;42.692;23.312;2023-06-26T00:27:05;94929.00;;;21.64;90.54
11124;BME280;5616;42.692;23.312;2023-06-26T00:29:33;94926.06;;;21.61;90.03
11124;BME280;5616;42.692;23.312;2023-06-26T00:32:00;94926.88;;;21.61;90.32
11124;BME280;5616;42.692;23.312;2023-06-26T00:34:27;94924.72;;;21.58;89.86
11124;BME280;5616;42.692;23.312;2023-06-26T00:36:54;94928.41;;;21.57;90.12
11124;BME280;5616;42.692;23.312;2023-06-26T00:39:21;94925.72;;;21.52;90.48
11124;BME280;5616;42.692;23.312;2023-06-26T00:41:51;94922.03;;;21.48;90.77
11124;BME280;5616;42.692;23.312;2023-06-26T00:44:19;94919.34;;;21.38;92.05
11124;BME280;5616;42.692;23.312;2023-06-26T00:46:47;94917.75;;;21.37;91.60
11124;BME280;5616;42.692;23.312;2023-06-26T00:49:14;94919.84;;;21.35;91.70
11124;BME280;5616;42.692;23.312;2023-06-26T00:51:41;94917.25;;;21.40;91.97
11124;BME280;5616;42.692;23.312;2023-06-26T00:54:08;94914.13;;;21.43;91.42
11124;BME280;5616;42.692;23.312;2023-06-26T00:56:35;94908.56;;;21.40;91.29
11124;BME280;5616;42.692;23.312;2023-06-26T00:59:04;94911.19;;;21.40;91.66
11124;BME280;5616;42.692;23.312;2023-06-26T01:01:31;94902.78;;;21.38;91.94
11124;BME280;5616;42.692;23.312;2023-06-26T01:03:59;94901.69;;;21.33;92.35
11124;BME280;5616;42.692;23.312;2023-06-26T01:06:27;94895.94;;;21.37;92.59
11124;BME280;5616;42.692;23.312;2023-06-26T01:08:57;94903.50;;;21.28;92.99
11124;BME280;5616;42.692;23.312;2023-06-26T01:11:24;94894.56;;;21.29;92.56
11124;BME280;5616;42.692;23.312;2023-06-26T01:13:51;94886.66;;;21.24;92.81
11124;BME280;5616;42.692;23.312;2023-06-26T01:16:20;94891.38;;;21.22;92.87
11124;BME280;5616;42.692;23.312;2023-06-26T01:18:48;94891.91;;;21.24;92.60
11124;BME280;5616;42.692;23.312;2023-06-26T01:21:17;94884.28;;;21.22;92.10
11124;BME280;5616;42.692;23.312;2023-06-26T01:23:58;94888.38;;;21.08;94.35
11124;BME280;5616;42.692;23.312;2023-06-26T01:26:33;94889.63;;;21.06;94.19
11124;BME280;5616;42.692;23.312;2023-06-26T01:29:02;94887.06;;;21.11;93.63
11124;BME280;5616;42.692;23.312;2023-06-26T01:31:30;94878.13;;;21.07;93.68
11124;BME280;5616;42.692;23.312;2023-06-26T01:33:58;94878.34;;;21.05;93.54
11124;BME280;5616;42.692;23.312;2023-06-26T01:36:25;94869.19;;;21.08;93.33
11124;BME280;5616;42.692;23.312;2023-06-26T01:38:53;94872.53;;;21.03;93.43
11124;BME280;5616;42.692;23.312;2023-06-26T01:41:23;94872.50;;;20.98;93.50
11124;BME280;5616;42.692;23.312;2023-06-26T01:44:03;94870.34;;;20.90;93.64
11124;BME280;5616;42.692;23.312;2023-06-26T01:46:38;94870.53;;;20.84;94.35
11124;BME280;5616;42.692;23.312;2023-06-26T01:49:09;94875.22;;;20.82;94.00
11124;BME280;5616;42.692;23.312;2023-06-26T01:51:41;94875.72;;;20.79;94.45
11124;BME280;5616;42.692;23.312;2023-06-26T01:54:10;94872.59;;;20.82;94.46
11124;BME280;5616;42.692;23.312;2023-06-26T01:56:41;94865.00;;;20.80;93.99
11124;BME280;5616;42.692;23.312;2023-06-26T01:59:11;94861.03;;;20.78;94.21
11124;BME280;5616;42.692;23.312;2023-06-26T02:01:39;94860.03;;;20.84;93.99
11124;BME280;5616;42.692;23.312;2023-06-26T02:04:07;94866.78;;;20.74;94.50
11124;BME280;5616;42.692;23.312;2023-06-26T02:06:34;94866.00;;;20.74;94.21
11124;BME280;5616;42.692;23.312;2023-06-26T02:09:01;94871.50;;;20.72;94.61
11124;BME280;5616;42.692;23.312;2023-06-26T02:11:30;94867.59;;;20.75;93.63
11124;BME280;5616;42.692;23.312;2023-06-26T02:13:57;94878.06;;;20.75;93.81
11124;BME280;5616;42.692;23.312;2023-06-26T02:16:26;94873.22;;;20.62;94.51
11124;BME280;5616;42.692;23.312;2023-06-26T02:18:52;94868.81;;;20.67;94.01
11124;BME280;5616;42.692;23.312;2023-06-26T02:21:22;94864.06;;;20.64;93.72
11124;BME280;5616;42.692;23.312;2023-06-26T02:23:49;94869.50;;;20.58;93.97
11124;BME280;5616;42.692;23.312;2023-06-26T02:26:16;94867.38;;;20.55;94.02
11124;BME280;5616;42.692;23.312;2023-06-26T02:28:42;94870.75;;;20.50;94.29
11124;BME280;5616;42.692;23.312;2023-06-26T02:31:11;94869.41;;;20.48;94.38
11124;BME280;5616;42.692;23.312;2023-06-26T02:33:41;94868.38;;;20.49;94.49
11124;BME280;5616;42.692;23.312;2023-06-26T02:36:08;94870.44;;;20.47;95.15
11124;BME280;5616;42.692;23.312;2023-06-26T02:38:34;94869.88;;;20.45;94.93
11124;BME280;5616;42.692;23.312;2023-06-26T02:41:02;94877.22;;;20.43;94.95
11124;BME280;5616;42.692;23.312;2023-06-26T02:43:29;94885.41;;;20.46;95.39
11124;BME280;5616;42.692;23.312;2023-06-26T02:45:56;94880.06;;;20.41;95.97
11124;BME280;5616;42.692;23.312;2023-06-26T02:48:23;94876.38;;;20.37;96.43
11124;BME280;5616;42.692;23.312;2023-06-26T02:50:51;94882.63;;;20.36;97.28
11124;BME280;5616;42.692;23.312;2023-06-26T02:53:22;94879.75;;;20.33;97.62
11124;BME280;5616;42.692;23.312;2023-06-26T02:55:49;94876.38;;;20.37;97.33
11124;BME280;5616;42.692;23.312;2023-06-26T02:58:17;94877.91;;;20.33;97.21
11124;BME280;5616;42.692;23.312;2023-06-26T03:00:44;94878.44;;;20.35;96.64
11124;BME280;5616;42.692;23.312;2023-06-26T03:03:15;94879.31;;;20.41;97.07
11124;BME280;5616;42.692;23.312;2023-06-26T03:05:42;94878.50;;;20.40;96.00
11124;BME280;5616;42.692;23.312;2023-06-26T03:08:10;94884.78;;;20.39;95.86
11124;BME280;5616;42.692;23.312;2023-06-26T03:10:38;94880.28;;;20.35;95.81
11124;BME280;5616;42.692;23.312;2023-06-26T03:13:05;94880.03;;;20.36;96.33
11124;BME280;5616;42.692;23.312;2023-06-26T03:15:32;94880.34;;;20.40;96.13
11124;BME280;5616;42.692;23.312;2023-06-26T03:17:58;94878.72;;;20.39;96.44
11124;BME280;5616;42.692;23.312;2023-06-26T03:20:28;94877.66;;;20.35;96.23
11124;BME280;5616;42.692;23.312;2023-06-26T03:22:56;94881.63;;;20.37;95.94
11124;BME280;5616;42.692;23.312;2023-06-26T03:25:25;94880.88;;;20.42;96.21
11124;BME280;5616;42.692;23.312;2023-06-26T03:28:03;94878.34;;;20.25;97.00
11124;BME280;5616;42.692;23.312;2023-06-26T03:30:31;94880.38;;;20.23;97.03
11124;BME280;5616;42.692;23.312;2023-06-26T03:32:58;94878.63;;;20.07;97.64
11124;BME280;5616;42.692;23.312;2023-06-26T03:35:24;94885.28;;;20.14;97.91
11124;BME280;5616;42.692;23.312;2023-06-26T03:37:51;94885.56;;;20.18;97.33
11124;BME280;5616;42.692;23.312;2023-06-26T03:40:18;94887.69;;;20.21;96.88
11124;BME280;5616;42.692;23.312;2023-06-26T03:42:46;94888.84;;;20.25;96.85
11124;BME280;5616;42.692;23.312;2023-06-26T03:45:13;94884.53;;;20.19;96.91
11124;BME280;5616;42.692;23.312;2023-06-26T03:47:42;94890.09;;;20.23;96.76
11124;BME280;5616;42.692;23.312;2023-06-26T03:50:09;94884.63;;;20.24;96.70
11124;BME280;5616;42.692;23.312;2023-06-26T03:52:36;94880.16;;;20.25;96.53
11124;BME280;5616;42.692;23.312;2023-06-26T03:55:04;94885.97;;;20.27;96.54
11124;BME280;5616;42.692;23.312;2023-06-26T03:57:31;94879.28;;;20.19;97.34
11124;BME280;5616;42.692;23.312;2023-06-26T03:59:59;94877.16;;;20.16;97.99
11124;BME280;5616;42.692;23.312;2023-06-26T04:02:26;94874.72;;;20.31;97.09
11124;BME280;5616;42.692;23.312;2023-06-26T04:04:53;94873.84;;;20.47;95.95
11124;BME280;5616;42.692;23.312;2023-06-26T04:07:20;94880.84;;;20.63;94.98
11124;BME280;5616;42.692;23.312;2023-06-26T04:09:47;94880.94;;;20.73;93.26
11124;BME280;5616;42.692;23.312;2023-06-26T04:12:13;94893.19;;;20.95;93.57
11124;BME280;5616;42.692;23.312;2023-06-26T04:14:40;94886.78;;;21.07;92.71
11124;BME280;5616;42.692;23.312;2023-06-26T04:17:09;94881.94;;;21.26;91.27
11124;BME280;5616;42.692;23.312;2023-06-26T04:19:36;94888.84;;;21.37;90.29
11124;BME280;5616;42.692;23.312;2023-06-26T04:22:03;94887.41;;;21.56;89.33
11124;BME280;5616;42.692;23.312;2023-06-26T04:24:30;94887.47;;;21.66;89.05
11124;BME280;5616;42.692;23.312;2023-06-26T04:26:57;94885.69;;;21.77;87.32
11124;BME280;5616;42.692;23.312;2023-06-26T04:29:25;94893.06;;;21.80;86.65
11124;BME280;5616;42.692;23.312;2023-06-26T04:31:52;94887.56;;;21.81;86.92
11124;BME280;5616;42.692;23.312;2023-06-26T04:34:24;94884.97;;;21.86;85.74
11124;BME280;5616;42.692;23.312;2023-06-26T04:36:51;94886.59;;;21.92;85.62
11124;BME280;5616;42.692;23.312;2023-06-26T04:39:18;94886.88;;;21.96;84.80
11124;BME280;5616;42.692;23.312;2023-06-26T04:41:45;94887.16;;;22.05;83.94
11124;BME280;5616;42.692;23.312;2023-06-26T04:44:12;94890.59;;;22.05;83.71
11124;BME280;5616;42.692;23.312;2023-06-26T04:46:39;94900.88;;;22.07;83.92
11124;BME280;5616;42.692;23.312;2023-06-26T04:49:06;94900.63;;;22.13;83.38
11124;BME280;5616;42.692;23.312;2023-06-26T04:51:34;94894.53;;;22.03;84.87
11124;BME280;5616;42.692;23.312;2023-06-26T04:54:06;94891.72;;;22.19;82.91
11124;BME280;5616;42.692;23.312;2023-06-26T04:56:33;94896.78;;;22.36;81.84
11124;BME280;5616;42.692;23.312;2023-06-26T04:58:59;94893.19;;;22.62;82.31
11124;BME280;5616;42.692;23.312;2023-06-26T05:01:26;94889.31;;;22.90;81.53
11124;BME280;5616;42.692;23.312;2023-06-26T05:03:55;94895.13;;;23.07;79.09
11124;BME280;5616;42.692;23.312;2023-06-26T05:06:21;94893.28;;;23.12;78.49
11124;BME280;5616;42.692;23.312;2023-06-26T05:08:50;94900.91;;;23.14;78.02
11124;BME280;5616;42.692;23.312;2023-06-26T05:11:16;94903.78;;;23.07;79.00
11124;BME280;5616;42.692;23.312;2023-06-26T05:13:43;94901.97;;;23.08;78.79
11124;BME280;5616;42.692;23.312;2023-06-26T05:16:10;94902.50;;;23.15;79.73
11124;BME280;5616;42.692;23.312;2023-06-26T05:18:37;94900.91;;;23.34;78.71
11124;BME280;5616;42.692;23.312;2023-06-26T05:21:04;94903.03;;;23.52;78.40
11124;BME280;5616;42.692;23.312;2023-06-26T05:23:32;94910.69;;;23.49;75.24
11124;BME280;5616;42.692;23.312;2023-06-26T05:26:02;94908.56;;;23.56;75.38
11124;BME280;5616;42.692;23.312;2023-06-26T05:28:30;94909.84;;;23.79;73.96
11124;BME280;5616;42.692;23.312;2023-06-26T05:30:57;94915.41;;;23.82;73.19
11124;BME280;5616;42.692;23.312;2023-06-26T05:33:26;94914.56;;;24.07;72.09
11124;BME280;5616;42.692;23.312;2023-06-26T05:35:54;94922.91;;;24.44;70.84
11124;BME280;5616;42.692;23.312;2023-06-26T05:38:21;94917.22;;;24.81;69.62
11124;BME280;5616;42.692;23.312;2023-06-26T05:40:49;94917.47;;;25.18;67.82
11124;BME280;5616;42.692;23.312;2023-06-26T05:43:18;94913.81;;;25.14;67.05
11124;BME280;5616;42.692;23.312;2023-06-26T05:45:46;94916.63;;;24.84;67.96
11124;BME280;5616;42.692;23.312;2023-06-26T05:48:13;94915.13;;;24.68;68.49
11124;BME280;5616;42.692;23.312;2023-06-26T05:50:42;94920.25;;;24.44;70.04
11124;BME280;5616;42.692;23.312;2023-06-26T05:53:09;94919.50;;;24.39;70.65
11124;BME280;5616;42.692;23.312;2023-06-26T05:55:36;94920.81;;;24.41;69.10
11124;BME280;5616;42.692;23.312;2023-06-26T05:58:05;94927.34;;;24.54;70.45
11124;BME280;5616;42.692;23.312;2023-06-26T06:00:34;94920.91;;;24.75;71.27
11124;BME280;5616;42.692;23.312;2023-06-26T06:03:01;94920.88;;;24.85;67.80
11124;BME280;5616;42.692;23.312;2023-06-26T06:05:27;94914.28;;;25.21;66.40
11124;BME280;5616;42.692;23.312;2023-06-26T06:07:54;94919.53;;;26.41;63.73
11124;BME280;5616;42.692;23.312;2023-06-26T06:10:21;94916.63;;;27.73;58.64
11124;BME280;5616;42.692;23.312;2023-06-26T06:12:48;94919.44;;;28.77;54.92
11124;BME280;5616;42.692;23.312;2023-06-26T06:15:15;94917.16;;;29.20;52.34
11124;BME280;5616;42.692;23.312;2023-06-26T06:17:43;94915.00;;;28.86;53.18
11124;BME280;5616;42.692;23.312;2023-06-26T06:20:10;94920.13;;;28.83;54.71
11124;BME280;5616;42.692;23.312;2023-06-26T06:22:37;94915.41;;;28.66;53.96
11124;BME280;5616;42.692;23.312;2023-06-26T06:25:04;94916.88;;;28.72;53.46
11124;BME280;5616;42.692;23.312;2023-06-26T06:27:31;94919.63;;;28.40;53.20
11124;BME280;5616;42.692;23.312;2023-06-26T06:29:58;94917.06;;;28.89;52.41
11124;BME280;5616;42.692;23.312;2023-06-26T06:32:25;94906.25;;;30.75;47.93
11124;BME280;5616;42.692;23.312;2023-06-26T06:34:53;94910.09;;;31.26;46.69
11124;BME280;5616;42.692;23.312;2023-06-26T06:37:20;94907.47;;;31.98;44.67
11124;BME280;5616;42.692;23.312;2023-06-26T06:39:46;94917.06;;;33.45;41.02
11124;BME280;5616;42.692;23.312;2023-06-26T06:42:13;94909.66;;;35.69;37.55
11124;BME280;5616;42.692;23.312;2023-06-26T06:44:40;94908.63;;;37.52;34.44
11124;BME280;5616;42.692;23.312;2023-06-26T06:47:07;94912.31;;;38.73;31.77
11124;BME280;5616;42.692;23.312;2023-06-26T06:49:33;94910.66;;;39.77;29.54
11124;BME280;5616;42.692;23.312;2023-06-26T06:52:02;94905.22;;;41.05;27.66
11124;BME280;5616;42.692;23.312;2023-06-26T06:54:28;94909.47;;;41.06;27.54
11124;BME280;5616;42.692;23.312;2023-06-26T06:56:55;94906.41;;;42.12;26.17
11124;BME280;5616;42.692;23.312;2023-06-26T06:59:22;94909.94;;;43.00;24.51
11124;BME280;5616;42.692;23.312;2023-06-26T07:01:49;94902.72;;;43.66;23.05
11124;BME280;5616;42.692;23.312;2023-06-26T07:04:15;94900.56;;;44.09;22.57
11124;BME280;5616;42.692;23.312;2023-06-26T07:06:42;94897.81;;;44.20;22.38
11124;BME280;5616;42.692;23.312;2023-06-26T07:09:10;94899.09;;;44.53;22.15
11124;BME280;5616;42.692;23.312;2023-06-26T07:11:37;94903.81;;;44.96;21.81
11124;BME280;5616;42.692;23.312;2023-06-26T07:14:04;94902.94;;;45.03;21.91
11124;BME280;5616;42.692;23.312;2023-06-26T07:16:31;94895.06;;;44.71;22.61
11124;BME280;5616;42.692;23.312;2023-06-26T07:18:57;94890.09;;;45.04;21.91
11124;BME280;5616;42.692;23.312;2023-06-26T07:21:24;94901.56;;;45.25;21.23
11124;BME280;5616;42.692;23.312;2023-06-26T07:23:51;94892.75;;;44.70;22.37
11124;BME280;5616;42.692;23.312;2023-06-26T07:26:19;94900.56;;;43.33;23.09
11124;BME280;5616;42.692;23.312;2023-06-26T07:28:47;94890.28;;;41.36;25.84
11124;BME280;5616;42.692;23.312;2023-06-26T07:31:14;94896.31;;;38.84;28.01
11124;BME280;5616;42.692;23.312;2023-06-26T07:33:42;94896.03;;;37.02;30.77
11124;BME280;5616;42.692;23.312;2023-06-26T07:36:09;94891.44;;;35.78;34.31
11124;BME280;5616;42.692;23.312;2023-06-26T07:38:35;94888.44;;;36.73;32.05
11124;BME280;5616;42.692;23.312;2023-06-26T07:41:02;94892.22;;;38.22;29.66
11124;BME280;5616;42.692;23.312;2023-06-26T07:43:30;94888.34;;;40.24;26.38
11124;BME280;5616;42.692;23.312;2023-06-26T07:45:57;94889.25;;;40.89;25.70
11124;BME280;5616;42.692;23.312;2023-06-26T07:48:25;94885.50;;;42.37;25.41
11124;BME280;5616;42.692;23.312;2023-06-26T07:50:52;94896.28;;;43.36;22.59
11124;BME280;5616;42.692;23.312;2023-06-26T07:53:19;94894.19;;;43.61;22.96
11124;BME280;5616;42.692;23.312;2023-06-26T07:55:45;94895.19;;;42.87;23.25
11124;BME280;5616;42.692;23.312;2023-06-26T07:58:12;94894.81;;;42.96;22.98
11124;BME280;5616;42.692;23.312;2023-06-26T08:00:40;94895.59;;;42.22;25.01
11124;BME280;5616;42.692;23.312;2023-06-26T08:03:07;94895.75;;;41.43;25.69
11124;BME280;5616;42.692;23.312;2023-06-26T08:05:34;94893.31;;;40.18;26.49
11124;BME280;5616;42.692;23.312;2023-06-26T08:08:01;94888.28;;;40.17;26.13
11124;BME280;5616;42.692;23.312;2023-06-26T08:10:28;94892.78;;;38.80;27.78
11124;BME280;5616;42.692;23.312;2023-06-26T08:12:55;94878.72;;;36.84;31.35
11124;BME280;5616;42.692;23.312;2023-06-26T08:15:23;94880.00;;;34.73;34.54
11124;BME280;5616;42.692;23.312;2023-06-26T08:17:51;94887.72;;;33.16;37.22
11124;BME280;5616;42.692;23.312;2023-06-26T08:20:18;94882.44;;;32.78;39.10
11124;BME280;5616;42.692;23.312;2023-06-26T08:22:45;94887.91;;;33.64;36.09
11124;BME280;5616;42.692;23.312;2023-06-26T08:25:14;94882.19;;;33.33;38.88
11124;BME280;5616;42.692;23.312;2023-06-26T08:27:41;94884.97;;;32.16;40.91
11124;BME280;5616;42.692;23.312;2023-06-26T08:30:08;94885.19;;;31.85;40.93
11124;BME280;5616;42.692;23.312;2023-06-26T08:32:35;94886.69;;;31.57;40.61
11124;BME280;5616;42.692;23.312;2023-06-26T08:35:04;94877.88;;;32.79;38.52
11124;BME280;5616;42.692;23.312;2023-06-26T08:37:31;94883.34;;;34.94;34.41
11124;BME280;5616;42.692;23.312;2023-06-26T08:39:58;94883.72;;;35.21;34.43
11124;BME280;5616;42.692;23.312;2023-06-26T08:42:25;94880.81;;;36.44;33.23
11124;BME280;5616;42.692;23.312;2023-06-26T08:44:52;94880.63;;;35.74;31.83
11124;BME280;5616;42.692;23.312;2023-06-26T08:47:19;94885.38;;;34.13;37.48
11124;BME280;5616;42.692;23.312;2023-06-26T08:49:49;94884.44;;;33.31;38.67
11124;BME280;5616;42.692;23.312;2023-06-26T08:52:23;94886.28;;;32.39;40.40
11124;BME280;5616;42.692;23.312;2023-06-26T08:54:54;94880.63;;;32.32;39.19
11124;BME280;5616;42.692;23.312;2023-06-26T08:57:23;94873.41;;;31.86;39.34
11124;BME280;5616;42.692;23.312;2023-06-26T08:59:50;94881.88;;;32.05;39.54
11124;BME280;5616;42.692;23.312;2023-06-26T09:02:18;94872.28;;;32.04;37.61
11124;BME280;5616;42.692;23.312;2023-06-26T09:04:47;94880.53;;;33.08;39.39
11124;BME280;5616;42.692;23.312;2023-06-26T09:07:14;94871.53;;;34.71;36.55
11124;BME280;5616;42.692;23.312;2023-06-26T09:09:42;94871.22;;;36.27;33.72
11124;BME280;5616;42.692;23.312;2023-06-26T09:12:09;94877.69;;;36.73;32.36
11124;BME280;5616;42.692;23.312;2023-06-26T09:14:36;94875.47;;;35.01;35.01
11124;BME280;5616;42.692;23.312;2023-06-26T09:17:04;94875.66;;;34.20;37.45
11124;BME280;5616;42.692;23.312;2023-06-26T09:19:31;94873.69;;;33.84;37.22
11124;BME280;5616;42.692;23.312;2023-06-26T09:21:57;94878.34;;;34.20;35.18
11124;BME280;5616;42.692;23.312;2023-06-26T09:24:24;94875.13;;;34.63;37.12
11124;BME280;5616;42.692;23.312;2023-06-26T09:26:53;94862.91;;;34.54;36.27
11124;BME280;5616;42.692;23.312;2023-06-26T09:29:20;94869.13;;;34.94;34.82
11124;BME280;5616;42.692;23.312;2023-06-26T09:31:47;94865.00;;;35.09;34.76
11124;BME280;5616;42.692;23.312;2023-06-26T09:34:13;94862.59;;;35.90;31.57
11124;BME280;5616;42.692;23.312;2023-06-26T09:36:40;94868.47;;;35.80;30.75
11124;BME280;5616;42.692;23.312;2023-06-26T09:39:12;94856.22;;;36.10;30.36
11124;BME280;5616;42.692;23.312;2023-06-26T09:41:41;94864.94;;;33.75;36.76
11124;BME280;5616;42.692;23.312;2023-06-26T09:44:10;94868.56;;;33.26;34.99
11124;BME280;5616;42.692;23.312;2023-06-26T09:46:37;94868.94;;;32.16;37.81
11124;BME280;5616;42.692;23.312;2023-06-26T09:49:06;94870.75;;;31.78;37.02
11124;BME280;5616;42.692;23.312;2023-06-26T09:51:34;94866.13;;;31.58;40.45
11124;BME280;5616;42.692;23.312;2023-06-26T09:54:01;94860.94;;;31.27;41.34
11124;BME280;5616;42.692;23.312;2023-06-26T09:56:30;94858.28;;;31.18;41.35
11124;BME280;5616;42.692;23.312;2023-06-26T09:58:58;94864.56;;;31.05;40.53
11124;BME280;5616;42.692;23.312;2023-06-26T10:01:28;94868.75;;;30.80;40.04
11124;BME280;5616;42.692;23.312;2023-06-26T10:03:55;94865.34;;;30.23;42.74
11124;BME280;5616;42.692;23.312;2023-06-26T10:06:27;94867.06;;;29.36;45.24
11124;BME280;5616;42.692;23.312;2023-06-26T10:08:56;94852.66;;;29.15;48.63
11124;BME280;5616;42.692;23.312;2023-06-26T10:11:25;94856.22;;;29.10;43.27
11124;BME280;5616;42.692;23.312;2023-06-26T10:13:57;94869.78;;;29.00;43.26
11124;BME280;5616;42.692;23.312;2023-06-26T10:16:26;94863.91;;;28.89;42.84
11124;BME280;5616;42.692;23.312;2023-06-26T10:19:00;94860.47;;;28.75;47.63
11124;BME280;5616;42.692;23.312;2023-06-26T10:21:29;94872.97;;;28.61;45.98
11124;BME280;5616;42.692;23.312;2023-06-26T10:23:56;94854.47;;;28.56;45.08
11124;BME280;5616;42.692;23.312;2023-06-26T10:26:24;94861.72;;;28.42;46.24
11124;BME280;5616;42.692;23.312;2023-06-26T10:28:53;94868.34;;;27.85;48.99
11124;BME280;5616;42.692;23.312;2023-06-26T10:31:23;94861.25;;;27.67;47.32
11124;BME280;5616;42.692;23.312;2023-06-26T10:33:52;94854.38;;;27.33;50.47
11124;BME280;5616;42.692;23.312;2023-06-26T10:36:27;94866.00;;;27.19;51.25
11124;BME280;5616;42.692;23.312;2023-06-26T10:38:56;94856.03;;;27.29;49.10
11124;BME280;5616;42.692;23.312;2023-06-26T10:41:24;94856.78;;;26.98;51.84
11124;BME280;5616;42.692;23.312;2023-06-26T10:43:52;94860.75;;;26.82;49.56
11124;BME280;5616;42.692;23.312;2023-06-26T10:46:33;94858.47;;;26.94;51.01
11124;BME280;5616;42.692;23.312;2023-06-26T10:49:00;94855.66;;;26.85;49.11
11124;BME280;5616;42.692;23.312;2023-06-26T10:51:29;94862.66;;;26.95;48.68
11124;BME280;5616;42.692;23.312;2023-06-26T10:53:57;94859.47;;;27.30;48.50
11124;BME280;5616;42.692;23.312;2023-06-26T10:56:44;94849.16;;;27.61;46.31
11124;BME280;5616;42.692;23.312;2023-06-26T10:59:14;94851.72;;;27.66;48.46
11124;BME280;5616;42.692;23.312;2023-06-26T11:01:42;94846.63;;;27.69;48.31
11124;BME280;5616;42.692;23.312;2023-06-26T11:04:09;94847.63;;;28.01;45.08
11124;BME280;5616;42.692;23.312;2023-06-26T11:06:39;94849.25;;;28.15;47.48
11124;BME280;5616;42.692;23.312;2023-06-26T11:09:15;94845.78;;;28.15;47.37
11124;BME280;5616;42.692;23.312;2023-06-26T11:11:58;94842.81;;;28.30;51.07
11124;BME280;5616;42.692;23.312;2023-06-26T11:14:27;94843.69;;;27.98;50.49
11124;BME280;5616;42.692;23.312;2023-06-26T11:16:56;94836.81;;;27.97;50.21
11124;BME280;5616;42.692;23.312;2023-06-26T11:19:25;94833.91;;;28.12;45.27
11124;BME280;5616;42.692;23.312;2023-06-26T11:21:58;94831.94;;;28.18;48.63
11124;BME280;5616;42.692;23.312;2023-06-26T11:24:25;94832.09;;;28.21;44.62
11124;BME280;5616;42.692;23.312;2023-06-26T11:26:52;94832.78;;;28.00;49.58
11124;BME280;5616;42.692;23.312;2023-06-26T11:29:19;94832.69;;;27.91;46.80
11124;BME280;5616;42.692;23.312;2023-06-26T11:31:45;94831.31;;;27.80;49.41
11124;BME280;5616;42.692;23.312;2023-06-26T11:34:13;94833.47;;;27.91;49.13
11124;BME280;5616;42.692;23.312;2023-06-26T11:36:42;94832.91;;;27.95;46.34
11124;BME280;5616;42.692;23.312;2023-06-26T11:39:13;94833.44;;;27.64;45.82
11124;BME280;5616;42.692;23.312;2023-06-26T11:41:40;94833.06;;;27.71;51.09
11124;BME280;5616;42.692;23.312;2023-06-26T11:44:08;94828.78;;;27.43;47.87
11124;BME280;5616;42.692;23.312;2023-06-26T11:46:36;94828.34;;;27.54;52.14
11124;BME280;5616;42.692;23.312;2023-06-26T11:49:03;94827.75;;;27.25;50.98
11124;BME280;5616;42.692;23.312;2023-06-26T11:51:30;94824.31;;;27.57;46.96
11124;BME280;5616;42.692;23.312;2023-06-26T11:54:00;94826.00;;;27.93;45.36
11124;BME280;5616;42.692;23.312;2023-06-26T11:56:29;94818.41;;;28.01;48.94
11124;BME280;5616;42.692;23.312;2023-06-26T11:58:57;94823.84;;;27.96;45.41
11124;BME280;5616;42.692;23.312;2023-06-26T12:01:27;94821.59;;;28.16;45.64
11124;BME280;5616;42.692;23.312;2023-06-26T12:04:00;94825.22;;;28.34;47.10
11124;BME280;5616;42.692;23.312;2023-06-26T12:06:29;94817.72;;;28.36;49.68
11124;BME280;5616;42.692;23.312;2023-06-26T12:08:56;94811.31;;;28.37;45.53
11124;BME280;5616;42.692;23.312;2023-06-26T12:11:24;94820.88;;;28.38;49.26
11124;BME280;5616;42.692;23.312;2023-06-26T12:13:52;94815.16;;;28.44;48.48
11124;BME280;5616;42.692;23.312;2023-06-26T12:16:19;94815.06;;;28.49;44.37
11124;BME280;5616;42.692;23.312;2023-06-26T12:18:46;94815.22;;;28.67;43.35
11124;BME280;5616;42.692;23.312;2023-06-26T12:21:44;94829.34;;;28.89;41.76
11124;BME280;5616;42.692;23.312;2023-06-26T12:24:13;94821.16;;;28.86;43.65
11124;BME280;5616;42.692;23.312;2023-06-26T12:26:42;94822.97;;;28.77;43.86
11124;BME280;5616;42.692;23.312;2023-06-26T12:29:12;94832.88;;;28.63;42.44
11124;BME280;5616;42.692;23.312;2023-06-26T12:31:40;94822.81;;;28.46;42.25
11124;BME280;5616;42.692;23.312;2023-06-26T12:34:09;94831.00;;;28.36;45.91
11124;BME280;5616;42.692;23.312;2023-06-26T12:36:40;94822.28;;;27.95;46.68
11124;BME280;5616;42.692;23.312;2023-06-26T12:39:09;94816.25;;;27.75;47.86
11124;BME280;5616;42.692;23.312;2023-06-26T12:41:45;94827.06;;;27.92;46.82
11124;BME280;5616;42.692;23.312;2023-06-26T12:44:20;94826.97;;;27.98;50.90
11124;BME280;5616;42.692;23.312;2023-06-26T12:46:49;94829.81;;;28.01;49.14
11124;BME280;5616;42.692;23.312;2023-06-26T12:49:16;94822.06;;;27.91;48.63
11124;BME280;5616;42.692;23.312;2023-06-26T12:51:43;94826.41;;;27.73;48.87
11124;BME280;5616;42.692;23.312;2023-06-26T12:54:10;94823.66;;;27.78;46.73
11124;BME280;5616;42.692;23.312;2023-06-26T12:56:37;94826.50;;;27.36;51.38
11124;BME280;5616;42.692;23.312;2023-06-26T12:59:04;94820.97;;;27.32;49.55
11124;BME280;5616;42.692;23.312;2023-06-26T13:01:32;94829.38;;;27.21;53.13
11124;BME280;5616;42.692;23.312;2023-06-26T13:03:59;94824.78;;;27.13;52.34